»·PEaware :: AMF1981 KMFR-KRDD

AMF1981 :: KMFR-KRDD

FLIGHT INFORMATION

Flight Status: Arrived
Operator: Ameriflight
More flights by this operator :: More flights under this callsign
Pilot: Nickolaus B. (17683)
Aircraft: BEECH AIRCRAFT BEECH AIRLINER
(B190)
More flights by this aircraft type
Origin: KMFR Rogue Valley Intl-Medford
United States
Destination: KRDD Redding Mun
United States
More flights between these airports :: More routes between these airports
Route: BRUTE7 TALEM V23 FOLDS
File this flight plan on PilotEdge
Remarks:
Altitude:
(Current/Filed)
17,000ft
Speed:
(Current/Filed)
220kts
Departed: 03-Nov-18 06:15 PM
Arrived: 03-Nov-18 06:52 PM
Distance/Time
Traveled:
115nm/0:37
Distance/Time
To Go:
Arrived

Flight Plot

Page will automatically refresh every two minutes.

Flight plan parsing failed; only flown route is shown


Map Options




Map Legend


Flown Route
Filed Route
Departure Airport
Arrival Airport
Navaid (VOR, NDB)
Fix

Horizontal Profiles

Position Reports

Time Latitude Longitude Heading Altitude Ground
Speed
03-Nov-18 17:58 42.366737 -122.871398 249 1321ft 0kts
03-Nov-18 17:59 42.366737 -122.871398 249 1321ft 0kts
03-Nov-18 18:00 42.366737 -122.871398 249 1321ft 0kts
03-Nov-18 18:01 42.366737 -122.871398 249 1321ft 0kts
03-Nov-18 18:02 42.366737 -122.871398 249 1321ft 0kts
03-Nov-18 18:03 42.366737 -122.871398 249 1321ft 0kts
03-Nov-18 18:04 42.366737 -122.871398 249 1321ft 0kts
03-Nov-18 18:05 42.366737 -122.871398 249 1321ft 0kts
03-Nov-18 18:06 42.366737 -122.871398 249 1321ft 0kts
03-Nov-18 18:07 42.366737 -122.871398 249 1321ft 0kts
03-Nov-18 18:08 42.366737 -122.871398 249 1321ft 0kts
03-Nov-18 18:09 42.366737 -122.871398 249 1321ft 0kts
03-Nov-18 18:10 42.366706 -122.871563 263 1321ft 4kts
03-Nov-18 18:11 42.366797 -122.871722 46 1321ft 0kts
03-Nov-18 18:12 42.369357 -122.872036 349 1319ft 23kts
03-Nov-18 18:13 42.375239 -122.874988 339 1311ft 23kts
03-Nov-18 18:14 42.381132 -122.878172 338 1304ft 22kts
03-Nov-18 18:15 42.385511 -122.880386 8 1297ft 8kts
03-Nov-18 18:16 42.385731 -122.880258 38 1297ft 0kts
03-Nov-18 18:17 42.385739 -122.880250 39 1297ft 0kts
03-Nov-18 18:18 42.384961 -122.878518 158 1301ft 52kts
03-Nov-18 18:19 42.351644 -122.870666 219 2487ft 155kts
03-Nov-18 18:20 42.365003 -122.903654 28 4445ft 139kts
03-Nov-18 18:21 42.389854 -122.868221 77 6768ft 150kts
03-Nov-18 18:22 42.395196 -122.815442 72 9051ft 154kts
03-Nov-18 18:23 42.386676 -122.759988 158 10846ft 205kts
03-Nov-18 18:24 42.347434 -122.787392 223 13000ft 175kts
03-Nov-18 18:25 42.302104 -122.814638 211 15039ft 189kts
03-Nov-18 18:26 42.251777 -122.838583 209 16940ft 202kts
03-Nov-18 18:27 42.189386 -122.867161 206 17004ft 268kts
03-Nov-18 18:28 42.118716 -122.882778 180 17000ft 291kts
03-Nov-18 18:29 42.041507 -122.874405 180 17001ft 295kts
03-Nov-18 18:30 41.964211 -122.866425 180 17010ft 296kts
03-Nov-18 18:31 41.888783 -122.858747 180 17010ft 297kts
03-Nov-18 18:32 41.809528 -122.850689 180 17009ft 296kts
03-Nov-18 18:33 41.732142 -122.842839 180 17001ft 296kts
03-Nov-18 18:34 41.653206 -122.834848 180 17002ft 296kts
03-Nov-18 18:35 41.573506 -122.826794 180 17002ft 296kts
03-Nov-18 18:36 41.496503 -122.819026 180 17120ft 293kts
03-Nov-18 18:37 41.420280 -122.802389 165 17019ft 302kts
03-Nov-18 18:38 41.342847 -122.768875 165 17023ft 302kts
03-Nov-18 18:39 41.264678 -122.735386 165 17024ft 302kts
03-Nov-18 18:40 41.186320 -122.701942 165 17024ft 302kts
03-Nov-18 18:41 41.109451 -122.669214 165 17140ft 300kts
03-Nov-18 18:42 41.032558 -122.636727 163 17067ft 304kts
03-Nov-18 18:43 40.950935 -122.602173 162 16386ft 316kts
03-Nov-18 18:44 40.874464 -122.570169 161 15481ft 309kts
03-Nov-18 18:45 40.797117 -122.533627 153 14184ft 297kts
03-Nov-18 18:46 40.727588 -122.487405 152 12546ft 277kts
03-Nov-18 18:47 40.663840 -122.444296 151 10679ft 269kts
03-Nov-18 18:48 40.601342 -122.397913 145 8387ft 265kts
03-Nov-18 18:49 40.542012 -122.349444 149 5858ft 262kts
03-Nov-18 18:50 40.481630 -122.335707 184 3834ft 228kts
03-Nov-18 18:51 40.435271 -122.335164 179 2713ft 189kts
03-Nov-18 18:51 40.424025 -122.300783 22 1538ft 163kts
03-Nov-18 18:53 40.464923 -122.295093 0 1091ft 110kts
03-Nov-18 18:53 40.489261 -122.294976 359 721ft 105kts
03-Nov-18 18:55 40.513889 -122.294898 352 501ft 15kts
03-Nov-18 18:55 40.514230 -122.295887 267 501ft 0kts
03-Nov-18 18:57 40.511922 -122.296304 180 498ft 15kts
03-Nov-18 18:57 40.508356 -122.297230 225 497ft 16kts
03-Nov-18 18:58 40.504710 -122.298276 182 494ft 11kts
03-Nov-18 18:59 40.502960 -122.299002 176 494ft 0kts
03-Nov-18 19:00 40.502960 -122.299002 176 494ft 0kts
03-Nov-18 19:01 40.502960 -122.299002 176 494ft 0kts

Navigation Log

Ident Type
Flight plan parsing failed, navigation log unavailable